createdAt,value
2018-12-15T00:00:26.903Z,54.33
2018-12-15T00:03:05.075Z,94.60
2018-12-15T00:05:39.930Z,56.27
2018-12-15T00:08:14.797Z,63.60
2018-12-15T00:10:48.818Z,53.23
2018-12-15T00:13:23.172Z,49.30
2018-12-15T00:15:57.991Z,48.33
2018-12-15T00:18:32.204Z,48.97
2018-12-15T00:21:06.151Z,47.70
2018-12-15T00:23:40.212Z,48.77
2018-12-15T00:26:15.025Z,42.50
2018-12-15T00:28:52.938Z,47.27
2018-12-15T00:31:27.287Z,48.07
2018-12-15T00:34:02.765Z,44.40
2018-12-15T00:36:37.761Z,47.63
2018-12-15T00:39:12.580Z,46.47
2018-12-15T00:41:46.579Z,44.40
2018-12-15T00:44:20.771Z,48.80
2018-12-15T00:46:54.893Z,44.43
2018-12-15T00:49:29.970Z,44.77
2018-12-15T00:52:03.965Z,46.07
2018-12-15T00:54:37.992Z,49.20
2018-12-15T00:57:15.983Z,44.03
2018-12-15T00:59:50.015Z,47.23
2018-12-15T01:02:29.228Z,49.20
2018-12-15T01:05:03.544Z,46.73
2018-12-15T01:07:37.627Z,54.57
2018-12-15T01:10:15.734Z,49.63
2018-12-15T01:12:49.763Z,49.83
2018-12-15T01:15:33.231Z,46.97
2018-12-15T01:18:07.331Z,47.60
2018-12-15T01:20:41.447Z,50.53
2018-12-15T01:23:19.514Z,52.60
2018-12-15T01:25:53.663Z,56.40
2018-12-15T01:28:28.076Z,47.23
2018-12-15T01:31:02.308Z,53.90
2018-12-15T01:33:36.296Z,56.20
2018-12-15T01:36:10.588Z,55.20
2018-12-15T01:38:44.600Z,56.77
2018-12-15T01:41:18.884Z,60.17
2018-12-15T01:43:53.106Z,62.10
2018-12-15T01:46:27.318Z,54.23
2018-12-15T01:49:01.271Z,55.90
2018-12-15T01:51:35.629Z,48.43
2018-12-15T01:54:09.736Z,48.87
2018-12-15T01:56:43.880Z,51.30
2018-12-15T01:59:17.829Z,55.53
2018-12-15T02:42:35.704Z,50.33
2018-12-15T02:45:14.648Z,54.30
2018-12-15T02:47:49.163Z,54.53
2018-12-15T02:50:27.928Z,58.57
2018-12-15T02:53:01.903Z,54.30
2018-12-15T02:55:35.768Z,58.00
2018-12-15T02:58:09.967Z,56.40
2018-12-15T03:00:43.939Z,53.63
2018-12-15T03:03:22.682Z,54.60
2018-12-15T03:05:57.431Z,52.60
2018-12-15T03:08:31.389Z,53.87
2018-12-15T03:11:05.438Z,53.97
2018-12-15T03:13:39.718Z,54.57
2018-12-15T03:16:13.682Z,52.77
2018-12-15T03:18:47.883Z,58.03
2018-12-15T03:21:21.952Z,60.40
2018-12-15T03:23:56.242Z,61.60
2018-12-15T03:26:30.459Z,60.53
2018-12-15T03:29:04.541Z,65.70
2018-12-15T03:31:38.730Z,53.47
2018-12-15T03:34:12.880Z,57.03
2018-12-15T03:36:46.885Z,54.63
2018-12-15T03:39:21.242Z,53.23
2018-12-15T03:41:56.253Z,51.77
2018-12-15T04:02:23.748Z,58.90
2018-12-15T04:04:58.030Z,62.50
2018-12-15T04:07:32.680Z,65.43
2018-12-15T04:10:07.043Z,59.17
2018-12-15T04:12:45.019Z,64.40
2018-12-15T04:15:18.915Z,60.60
2018-12-15T04:17:53.361Z,61.10
2018-12-15T04:20:31.264Z,61.90
2018-12-15T04:23:05.439Z,66.03
2018-12-15T04:25:39.656Z,63.40
2018-12-15T04:28:17.990Z,63.30
2018-12-15T04:30:52.112Z,65.33
2018-12-15T04:33:25.977Z,64.00
2018-12-15T04:36:07.209Z,59.80
2018-12-15T04:38:41.551Z,60.13
2018-12-15T04:41:15.638Z,57.97
2018-12-15T04:43:50.671Z,64.53
2018-12-15T04:46:25.815Z,65.37
2018-12-15T04:49:00.152Z,60.17
2018-12-15T04:51:38.510Z,58.00
2018-12-15T04:54:16.648Z,59.43
2018-12-15T04:56:50.584Z,54.23
2018-12-15T04:59:24.800Z,62.63
2018-12-15T05:01:58.995Z,56.90
2018-12-15T05:07:05.956Z,58.40
2018-12-15T05:09:40.132Z,60.43
2018-12-15T05:12:14.033Z,65.67
2018-12-15T05:14:48.303Z,57.10
2018-12-15T05:17:29.325Z,61.37
2018-12-15T05:20:04.432Z,57.47
2018-12-15T05:22:39.239Z,56.27
2018-12-15T05:25:13.447Z,59.90
2018-12-15T05:27:47.541Z,56.03
2018-12-15T05:30:21.411Z,55.70
2018-12-15T05:32:55.347Z,53.67
2018-12-15T05:35:29.935Z,58.43
2018-12-15T05:38:04.601Z,56.27
2018-12-15T05:40:38.617Z,51.40
2018-12-15T05:43:13.545Z,55.50
2018-12-15T05:45:48.360Z,55.93
2018-12-15T05:48:25.360Z,53.07
2018-12-15T05:50:59.783Z,54.50
2018-12-15T05:53:34.080Z,59.13
2018-12-15T05:56:12.203Z,57.10
2018-12-15T05:58:46.503Z,57.63
2018-12-15T06:01:20.303Z,59.40
2018-12-15T06:03:54.458Z,59.63
2018-12-15T06:14:07.012Z,56.83
2018-12-15T06:16:41.926Z,54.73
2018-12-15T06:19:16.740Z,57.17
2018-12-15T06:21:50.876Z,55.53
2018-12-15T06:24:24.909Z,53.10
2018-12-15T06:26:59.059Z,50.50
2018-12-15T06:29:33.180Z,54.43
2018-12-15T06:32:07.382Z,44.40
2018-12-15T06:34:41.415Z,49.37
2018-12-15T06:37:15.575Z,50.40
2018-12-15T06:39:49.676Z,47.73
2018-12-15T06:42:23.774Z,45.57
2018-12-15T06:44:58.303Z,48.13
2018-12-15T06:47:32.341Z,48.00
2018-12-15T06:50:11.067Z,48.40
2018-12-15T06:52:45.929Z,50.10
2018-12-15T06:55:19.914Z,43.40
2018-12-15T06:57:54.004Z,48.03
2018-12-15T07:00:28.197Z,48.07
2018-12-15T07:03:02.347Z,52.97
2018-12-15T07:05:36.425Z,49.80
2018-12-15T07:08:10.668Z,44.60
2018-12-15T07:10:45.363Z,49.37
2018-12-15T07:13:19.392Z,47.40
2018-12-15T07:15:53.899Z,46.83
2018-12-15T07:18:28.619Z,47.67
2018-12-15T07:21:06.899Z,52.10
2018-12-15T07:23:44.973Z,52.63
2018-12-15T07:26:19.013Z,44.93
2018-12-15T07:28:57.019Z,48.13
2018-12-15T07:31:31.039Z,48.13
2018-12-15T07:34:05.224Z,45.33
2018-12-15T07:36:39.809Z,44.30
2018-12-15T07:39:14.431Z,41.67
2018-12-15T07:41:48.946Z,50.43
2018-12-15T07:44:22.822Z,47.83
2018-12-15T07:46:57.092Z,43.20
2018-12-15T07:49:32.028Z,42.53
2018-12-15T07:52:06.318Z,47.13
2018-12-15T07:54:40.465Z,43.10
2018-12-15T07:57:15.380Z,41.43
2018-12-15T07:59:49.438Z,41.17
2018-12-15T08:02:23.501Z,41.77
2018-12-15T08:04:57.671Z,43.20
2018-12-15T08:07:31.777Z,39.37
2018-12-15T08:10:07.545Z,42.53
2018-12-15T08:12:43.534Z,40.37
2018-12-15T08:15:18.463Z,43.97
2018-12-15T08:33:09.793Z,40.17
2018-12-15T08:35:44.739Z,34.37
2018-12-15T08:38:19.637Z,40.17
2018-12-15T08:40:53.875Z,39.00
2018-12-15T08:43:27.963Z,38.10
2018-12-15T08:46:09.088Z,38.37
2018-12-15T08:48:43.667Z,37.93
2018-12-15T08:51:18.606Z,46.97
2018-12-15T08:53:52.607Z,52.93
2018-12-15T08:56:26.641Z,39.80
2018-12-15T08:59:00.848Z,38.83
2018-12-15T09:01:34.650Z,38.57
2018-12-15T09:04:09.444Z,36.73
2018-12-15T09:06:43.732Z,36.73
2018-12-15T09:09:18.211Z,38.37
2018-12-15T09:11:52.405Z,39.10
2018-12-15T09:14:26.548Z,34.10
2018-12-15T09:17:00.675Z,32.27
2018-12-15T09:19:35.721Z,35.90
2018-12-15T09:22:11.597Z,39.40
2018-12-15T09:24:50.004Z,33.77
2018-12-15T09:27:27.869Z,33.60
2018-12-15T09:30:01.912Z,35.03
2018-12-15T09:32:40.231Z,34.63
2018-12-15T09:35:14.525Z,33.70
2018-12-15T09:37:48.480Z,34.47
2018-12-15T09:40:22.669Z,38.67
2018-12-15T09:43:00.981Z,42.90
2018-12-15T09:45:35.356Z,33.20
2018-12-15T09:48:13.579Z,33.87
2018-12-15T09:50:47.799Z,31.47
2018-12-15T09:53:21.879Z,33.03
2018-12-15T09:55:56.510Z,31.03
2018-12-15T09:58:31.155Z,29.27
2018-12-15T10:01:05.580Z,32.13
2018-12-15T10:03:39.539Z,25.83
2018-12-15T10:06:13.629Z,25.63
2018-12-15T10:08:47.629Z,28.27
2018-12-15T10:11:21.749Z,27.47
2018-12-15T10:14:00.550Z,28.33
2018-12-15T10:16:34.714Z,30.17
2018-12-15T10:19:09.827Z,27.33
2018-12-15T10:21:44.079Z,27.80
2018-12-15T10:24:18.034Z,29.37
2018-12-15T10:26:52.864Z,26.67
2018-12-15T10:29:31.932Z,25.87
2018-12-15T10:32:11.315Z,28.73
2018-12-15T10:34:45.637Z,38.00
2018-12-15T10:50:03.796Z,25.10
2018-12-15T10:52:37.785Z,24.57
2018-12-15T10:55:12.020Z,24.53
2018-12-15T10:57:47.178Z,24.53
2018-12-15T11:00:27.023Z,27.77
2018-12-15T11:03:01.405Z,26.40
2018-12-15T11:05:35.439Z,25.07
2018-12-15T11:08:09.407Z,25.20
2018-12-15T11:10:48.022Z,24.57
2018-12-15T11:13:22.251Z,22.17
2018-12-15T11:15:56.564Z,27.30
2018-12-15T11:18:30.711Z,31.93
2018-12-15T11:21:04.775Z,26.40
2018-12-15T11:23:39.576Z,27.43
2018-12-15T11:26:14.531Z,25.70
2018-12-15T11:28:48.742Z,58.67
2018-12-15T11:31:23.013Z,44.53
2018-12-15T11:33:57.323Z,37.77
2018-12-15T11:36:35.989Z,81.17
2018-12-15T11:39:10.116Z,65.27
2018-12-15T11:41:48.158Z,48.33
2018-12-15T11:44:22.092Z,30.83
2018-12-15T11:46:56.454Z,32.37
2018-12-15T11:49:34.884Z,25.70
2018-12-15T11:52:10.042Z,27.43
2018-12-15T11:54:48.166Z,27.40
2018-12-15T11:57:23.028Z,30.03
2018-12-15T11:59:56.938Z,29.60
2018-12-15T12:02:31.972Z,30.97
2018-12-15T12:05:06.875Z,24.53
2018-12-15T12:07:41.604Z,28.20
2018-12-15T12:10:15.608Z,25.83
2018-12-15T12:12:50.033Z,25.50
2018-12-15T12:15:24.329Z,29.80
2018-12-15T12:18:02.418Z,30.57
2018-12-15T12:20:36.732Z,31.27
2018-12-15T12:23:10.738Z,25.13
2018-12-15T12:25:44.835Z,29.97
2018-12-15T12:28:18.919Z,26.37
2018-12-15T12:30:52.971Z,25.03
2018-12-15T12:33:27.048Z,24.90
2018-12-15T12:36:00.955Z,23.77
2018-12-15T12:38:35.015Z,27.77
2018-12-15T12:41:09.153Z,24.00
2018-12-15T12:43:44.323Z,23.63
2018-12-15T12:46:18.329Z,26.53
2018-12-15T12:48:52.444Z,26.87
2018-12-15T12:51:30.736Z,21.90
2018-12-15T12:54:05.103Z,25.00
2018-12-15T12:56:39.957Z,26.00
2018-12-15T12:59:14.985Z,29.37
2018-12-15T13:01:49.220Z,25.37
2018-12-15T13:04:28.187Z,26.87
2018-12-15T13:07:02.305Z,21.27
2018-12-15T13:09:36.316Z,22.20
2018-12-15T13:12:10.425Z,23.53
2018-12-15T13:14:44.824Z,23.30
2018-12-15T13:17:18.725Z,25.73
2018-12-15T13:19:52.673Z,23.30
2018-12-15T13:22:26.999Z,27.63
2018-12-15T13:25:01.197Z,20.97
2018-12-15T13:27:35.331Z,23.43
2018-12-15T13:30:10.068Z,34.80
2018-12-15T13:32:44.446Z,30.10
2018-12-15T13:35:18.741Z,23.53
2018-12-15T13:37:58.603Z,24.63
2018-12-15T13:40:32.775Z,22.53
2018-12-15T13:43:07.688Z,22.77
2018-12-15T13:45:42.424Z,24.33
2018-12-15T13:48:16.699Z,22.83
2018-12-15T13:50:50.951Z,21.87
2018-12-15T13:53:24.859Z,23.60
2018-12-15T13:55:59.157Z,20.37
2018-12-15T13:58:33.144Z,21.93
2018-12-15T14:01:07.186Z,24.53
2018-12-15T14:03:45.616Z,26.00
2018-12-15T14:06:20.450Z,22.50
2018-12-15T14:08:54.563Z,24.33
2018-12-15T14:11:29.481Z,23.40
2018-12-15T14:14:04.070Z,23.13
2018-12-15T14:16:43.053Z,23.40
2018-12-15T14:19:18.084Z,25.03
2018-12-15T14:21:52.032Z,24.37
2018-12-15T14:24:25.888Z,22.93
2018-12-15T14:26:59.920Z,22.03
2018-12-15T14:29:33.941Z,24.20
2018-12-15T14:32:08.029Z,23.67
2018-12-15T14:34:43.369Z,27.37
2018-12-15T14:37:17.457Z,25.13
2018-12-15T14:39:52.291Z,26.70
2018-12-15T14:42:26.912Z,24.37
2018-12-15T14:45:05.009Z,26.10
2018-12-15T14:47:43.028Z,21.97
2018-12-15T14:50:23.226Z,24.10
2018-12-15T14:52:54.935Z,23.03
2018-12-15T14:55:28.985Z,27.70
2018-12-15T14:58:03.334Z,23.80
2018-12-15T15:03:10.350Z,24.00
2018-12-15T15:05:44.565Z,35.83
2018-12-15T15:08:18.711Z,41.37
2018-12-15T15:10:53.203Z,26.03
2018-12-15T15:13:34.324Z,26.23
2018-12-15T15:16:04.535Z,27.80
2018-12-15T15:18:38.621Z,23.17
2018-12-15T15:21:12.559Z,25.30
2018-12-15T15:23:47.806Z,40.67
2018-12-15T15:26:21.788Z,38.57
2018-12-15T15:28:55.924Z,26.63
2018-12-15T15:31:30.199Z,24.13
2018-12-15T15:34:04.303Z,23.73
2018-12-15T15:36:38.971Z,23.77
2018-12-15T15:39:13.876Z,24.53
2018-12-15T15:41:48.292Z,25.33
2018-12-15T15:44:22.242Z,23.97
2018-12-15T15:46:56.322Z,27.00
2018-12-15T15:49:31.153Z,26.10
2018-12-15T15:52:05.344Z,27.87
2018-12-15T15:54:39.717Z,29.40
2018-12-15T15:57:14.507Z,46.17
2018-12-15T15:59:49.206Z,28.67
2018-12-15T16:20:16.643Z,24.70
2018-12-15T16:22:50.635Z,27.27
2018-12-15T16:25:24.692Z,44.50
2018-12-15T16:27:59.076Z,27.10
2018-12-15T16:30:34.021Z,25.00
2018-12-15T16:33:08.287Z,20.80
2018-12-15T16:35:42.432Z,23.20
2018-12-15T16:38:16.439Z,24.73
2018-12-15T16:40:50.368Z,23.70
2018-12-15T16:43:24.368Z,25.53
2018-12-15T16:45:59.113Z,23.43
2018-12-15T16:48:33.665Z,25.03
2018-12-15T16:51:12.852Z,20.47
2018-12-15T16:53:47.542Z,23.07
2018-12-15T16:56:21.517Z,26.73
2018-12-15T16:58:55.433Z,23.60
2018-12-15T17:01:29.751Z,24.60
2018-12-15T17:04:04.680Z,22.80
2018-12-15T17:06:43.552Z,21.20
2018-12-15T17:09:17.703Z,25.13
2018-12-15T17:11:52.191Z,24.90
2018-12-15T17:14:26.912Z,25.23
2018-12-15T17:17:05.100Z,22.80
2018-12-15T17:19:39.345Z,23.60
2018-12-15T17:22:13.654Z,32.97
2018-12-15T17:24:47.870Z,33.93
2018-12-15T17:27:30.959Z,36.10
2018-12-15T17:30:06.517Z,28.33
2018-12-15T17:32:41.633Z,30.10
2018-12-15T17:35:16.453Z,27.33
2018-12-15T17:37:50.691Z,26.97
2018-12-15T17:40:24.778Z,23.27
2018-12-15T17:42:59.591Z,25.80
2018-12-15T17:45:34.374Z,22.37
2018-12-15T17:48:09.353Z,28.50
2018-12-15T17:50:43.966Z,24.53
2018-12-15T17:53:18.817Z,24.03
2018-12-15T17:55:53.113Z,23.23
2018-12-15T17:58:27.666Z,26.87
2018-12-15T18:01:01.842Z,30.87
2018-12-15T18:03:36.051Z,25.30
2018-12-15T18:06:10.065Z,25.43
2018-12-15T18:08:44.277Z,27.17
2018-12-15T18:11:18.791Z,23.93
2018-12-15T18:13:53.752Z,27.40
2018-12-15T18:16:31.822Z,25.40
2018-12-15T18:19:06.797Z,26.43
2018-12-15T18:21:45.224Z,26.10
2018-12-15T18:24:19.353Z,22.80
2018-12-15T18:26:54.147Z,25.00
2018-12-15T18:29:28.317Z,42.27
2018-12-15T18:32:07.176Z,30.87
2018-12-15T18:34:42.035Z,37.67
2018-12-15T18:37:17.074Z,31.33
2018-12-15T18:39:55.926Z,27.90
2018-12-15T18:42:30.921Z,30.10
2018-12-15T18:45:06.905Z,33.73
2018-12-15T18:47:40.983Z,31.13
2018-12-15T18:50:15.221Z,29.30
2018-12-15T18:52:50.042Z,32.37
2018-12-15T18:55:24.420Z,29.37
2018-12-15T18:57:58.666Z,25.80
2018-12-15T19:00:33.527Z,29.80
2018-12-15T19:03:09.636Z,27.80
2018-12-15T19:05:48.688Z,28.60
2018-12-15T19:08:23.429Z,36.27
2018-12-15T19:10:58.025Z,35.33
2018-12-15T19:13:33.157Z,40.20
2018-12-15T19:16:07.283Z,39.67
2018-12-15T19:18:41.767Z,38.90
2018-12-15T19:21:22.802Z,33.60
2018-12-15T19:23:53.030Z,41.67
2018-12-15T19:26:27.144Z,29.47
2018-12-15T19:29:01.263Z,30.27
2018-12-15T19:31:40.515Z,32.70
2018-12-15T19:34:17.625Z,36.90
2018-12-15T19:36:52.323Z,35.17
2018-12-15T19:39:27.076Z,28.60
2018-12-15T19:42:01.799Z,29.50
2018-12-15T19:44:37.545Z,31.37
2018-12-15T19:47:12.435Z,29.67
2018-12-15T19:49:47.155Z,34.47
2018-12-15T19:52:22.117Z,31.20
2018-12-15T19:54:56.438Z,36.03
2018-12-15T19:57:31.404Z,35.23
2018-12-15T20:00:07.133Z,33.33
2018-12-15T20:02:41.412Z,58.53
2018-12-15T20:05:16.251Z,35.80
2018-12-15T20:07:51.100Z,52.10
2018-12-15T20:10:25.247Z,45.03
2018-12-15T20:12:59.284Z,34.13
2018-12-15T20:15:34.209Z,31.17
2018-12-15T20:18:09.277Z,32.73
2018-12-15T20:20:44.108Z,32.53
2018-12-15T20:23:23.564Z,34.77
2018-12-15T20:25:57.566Z,28.70
2018-12-15T20:28:31.724Z,37.60
2018-12-15T20:38:45.221Z,66.27
2018-12-15T20:41:24.777Z,33.90
2018-12-15T20:43:59.022Z,30.07
2018-12-15T20:46:37.149Z,30.57
2018-12-15T20:49:13.758Z,35.37
2018-12-15T20:51:48.439Z,30.40
2018-12-15T20:54:23.505Z,31.43
2018-12-15T20:56:58.653Z,36.93
2018-12-15T20:59:33.386Z,32.93
2018-12-15T21:02:07.358Z,29.47
2018-12-15T21:04:41.627Z,31.60
2018-12-15T21:07:16.468Z,32.77
2018-12-15T21:09:50.726Z,34.63
2018-12-15T21:12:25.791Z,37.23
2018-12-15T21:15:05.339Z,38.70
2018-12-15T21:17:44.135Z,32.63
2018-12-15T21:20:18.532Z,35.03
2018-12-15T21:22:52.690Z,31.67
2018-12-15T21:25:31.008Z,36.03
2018-12-15T21:28:05.987Z,35.90
2018-12-15T21:30:40.063Z,35.17
2018-12-15T21:33:14.260Z,32.60
2018-12-15T21:35:52.504Z,30.97
2018-12-15T21:43:32.084Z,31.43
2018-12-15T21:46:06.348Z,32.07
2018-12-15T21:48:40.533Z,36.67
2018-12-15T21:51:19.588Z,44.37
2018-12-15T21:53:54.527Z,57.07
2018-12-15T21:56:28.467Z,63.07
2018-12-15T21:59:02.575Z,31.70
2018-12-15T22:01:36.863Z,29.60
2018-12-15T22:04:11.425Z,31.83
2018-12-15T22:06:46.150Z,29.30
2018-12-15T22:09:20.257Z,31.40
2018-12-15T22:11:55.234Z,28.13
2018-12-15T22:14:29.690Z,28.93
2018-12-15T22:17:04.647Z,28.23
2018-12-15T22:19:39.658Z,30.50
2018-12-15T22:22:14.791Z,29.77
2018-12-15T22:24:49.970Z,27.33
2018-12-15T22:27:25.225Z,32.13
2018-12-15T22:30:00.296Z,28.30
2018-12-15T22:32:34.374Z,28.50
2018-12-15T22:35:08.621Z,29.50
2018-12-15T22:37:42.790Z,29.97
2018-12-15T22:40:16.886Z,31.00
2018-12-15T22:42:50.970Z,31.73
2018-12-15T22:55:41.469Z,28.63
2018-12-15T22:58:20.269Z,26.27
2018-12-15T23:01:00.197Z,30.23
2018-12-15T23:03:34.343Z,28.17
2018-12-15T23:06:09.395Z,41.90
2018-12-15T23:08:44.379Z,31.07
2018-12-15T23:11:18.563Z,50.33
2018-12-15T23:13:53.117Z,46.30
2018-12-15T23:16:28.701Z,29.83
2018-12-15T23:19:03.255Z,31.70
2018-12-15T23:21:37.567Z,31.23
2018-12-15T23:24:16.848Z,33.17
2018-12-15T23:26:51.730Z,28.93
2018-12-15T23:29:26.597Z,33.50
2018-12-15T23:32:01.560Z,29.07
2018-12-15T23:34:36.483Z,31.90
2018-12-15T23:37:11.084Z,28.70
2018-12-15T23:39:45.901Z,32.77
2018-12-15T23:42:20.202Z,31.63
2018-12-15T23:44:54.549Z,30.43
2018-12-15T23:47:30.627Z,28.87
2018-12-15T23:50:05.887Z,26.17
2018-12-15T23:52:40.812Z,26.70
